Terminal Aerodrome Forecast
Issued by NWS Albany, NY

Home | Current Version | Previous Version | Text Only | Print | Product List | Glossary On
Versions: 1 2 3 4 5 6 7 8 9 10 11 12 13
000
FTUS41 KALY 231125
TAFGFL
TAF
KGFL 231125Z 2312/2412 20004KT P6SM BKN050 OVC080
     FM231500 18010G20KT P6SM VCSH SCT025 OVC050
     FM232200 21012G20KT P6SM VCSH SCT025 OVC050 PROB30 2322/2404
      4SM -TSRA BR OVC025CB
     FM240400 21007KT 4SM -SHRA BR OVC025
     FM240800 22007KT 3SM BR OVC015
      AMD NOT SKED=

USA.gov is the U.S. government's official web portal to all federal, state and local government web resources and services.